sensor_id;sensor_type;location;lat;lon;timestamp;P1;P2;P0
74428;PMS5003;62860;52.134;23.714;2022-08-24T00:03:36;8.6;7;6.2
74428;PMS5003;62860;52.134;23.714;2022-08-24T00:07:53;8.8;7.6;6
74428;PMS5003;62860;52.134;23.714;2022-08-24T00:13:10;8.8;6.5;5.3
74428;PMS5003;62860;52.134;23.714;2022-08-24T00:18:06;9.2;7.4;6.4
74428;PMS5003;62860;52.134;23.714;2022-08-24T00:23:38;9;8;6
74428;PMS5003;62860;52.134;23.714;2022-08-24T00:28:26;11.6;8;6.6
74428;PMS5003;62860;52.134;23.714;2022-08-24T00:33:32;10.4;8.4;7
74428;PMS5003;62860;52.134;23.714;2022-08-24T00:38:22;9.6;7.8;6.6
74428;PMS5003;62860;52.134;23.714;2022-08-24T00:43:30;10.4;7.4;6
74428;PMS5003;62860;52.134;23.714;2022-08-24T00:48:24;9;7.4;5.4
74428;PMS5003;62860;52.134;23.714;2022-08-24T00:53:33;8.6;8;6
74428;PMS5003;62860;52.134;23.714;2022-08-24T00:57:54;9.8;7.8;5.8
74428;PMS5003;62860;52.134;23.714;2022-08-24T01:03:04;9;8.4;5.8
74428;PMS5003;62860;52.134;23.714;2022-08-24T01:07:54;8.8;7.2;5.6
74428;PMS5003;62860;52.134;23.714;2022-08-24T01:13:36;7.8;7;5.4
74428;PMS5003;62860;52.134;23.714;2022-08-24T01:18:36;8.4;7.4;6.2
74428;PMS5003;62860;52.134;23.714;2022-08-24T01:24:12;8;6.6;5.8
74428;PMS5003;62860;52.134;23.714;2022-08-24T01:28:18;9;7.8;6.6
74428;PMS5003;62860;52.134;23.714;2022-08-24T01:33:34;10;8.6;7.2
74428;PMS5003;62860;52.134;23.714;2022-08-24T01:38:36;9.2;8;6.2
74428;PMS5003;62860;52.134;23.714;2022-08-24T01:43:08;8.2;7.4;6
74428;PMS5003;62860;52.134;23.714;2022-08-24T01:47:54;9.2;7;5.6
74428;PMS5003;62860;52.134;23.714;2022-08-24T01:52:54;8.4;7.6;6
74428;PMS5003;62860;52.134;23.714;2022-08-24T01:58:06;11.6;8.6;7.4
74428;PMS5003;62860;52.134;23.714;2022-08-24T02:03:10;10.6;8.8;7.6
74428;PMS5003;62860;52.134;23.714;2022-08-24T02:08:14;10.2;9;6.8
74428;PMS5003;62860;52.134;23.714;2022-08-24T02:13:08;11;9;7
74428;PMS5003;62860;52.134;23.714;2022-08-24T02:18:30;9.2;8;6.6
74428;PMS5003;62860;52.134;23.714;2022-08-24T02:23:04;9.8;8.6;6.8
74428;PMS5003;62860;52.134;23.714;2022-08-24T02:28:42;10.2;8.6;7
74428;PMS5003;62860;52.134;23.714;2022-08-24T02:33:30;10.6;8.2;6.8
74428;PMS5003;62860;52.134;23.714;2022-08-24T02:37:54;12;8.4;6.6
74428;PMS5003;62860;52.134;23.714;2022-08-24T02:42:54;10.4;9;7.4
74428;PMS5003;62860;52.134;23.714;2022-08-24T02:48:06;9.2;8.6;6.8
74428;PMS5003;62860;52.134;23.714;2022-08-24T02:53:40;10;8;6.4
74428;PMS5003;62860;52.134;23.714;2022-08-24T02:58:28;11;8.6;7
74428;PMS5003;62860;52.134;23.714;2022-08-24T03:03:38;9.8;8.6;7.2
74428;PMS5003;62860;52.134;23.714;2022-08-24T03:08:22;11.2;8.6;6.8
74428;PMS5003;62860;52.134;23.714;2022-08-24T03:13:40;11.6;8.6;6
74428;PMS5003;62860;52.134;23.714;2022-08-24T03:18:22;11.6;9;6.4
74428;PMS5003;62860;52.134;23.714;2022-08-24T03:23:20;12;9.2;6.4
74428;PMS5003;62860;52.134;23.714;2022-08-24T03:28:12;11.4;8.2;6
74428;PMS5003;62860;52.134;23.714;2022-08-24T03:33:06;11;10;7.6
74428;PMS5003;62860;52.134;23.714;2022-08-24T03:37:54;11.2;8.6;7
74428;PMS5003;62860;52.134;23.714;2022-08-24T03:43:14;11.6;8.6;6.8
74428;PMS5003;62860;52.134;23.714;2022-08-24T03:48:42;10.6;7.8;6.4
74428;PMS5003;62860;52.134;23.714;2022-08-24T03:53:24;12;9.2;6.8
74428;PMS5003;62860;52.134;23.714;2022-08-24T03:58:18;11.2;9;6.8
74428;PMS5003;62860;52.134;23.714;2022-08-24T04:03:16;10.2;9.4;7.6
74428;PMS5003;62860;52.134;23.714;2022-08-24T04:08:40;11.8;9.4;6.8
74428;PMS5003;62860;52.134;23.714;2022-08-24T04:13:40;18.8;14.2;9.8
74428;PMS5003;62860;52.134;23.714;2022-08-24T04:18:26;11.6;8;6
74428;PMS5003;62860;52.134;23.714;2022-08-24T04:23:06;10;7;5.8
74428;PMS5003;62860;52.134;23.714;2022-08-24T04:27:54;11;8;6.2
74428;PMS5003;62860;52.134;23.714;2022-08-24T04:33:38;9.8;8.2;6.2
74428;PMS5003;62860;52.134;23.714;2022-08-24T04:37:54;10.2;8.6;6.6
74428;PMS5003;62860;52.134;23.714;2022-08-24T04:43:26;12.8;9;6.2
74428;PMS5003;62860;52.134;23.714;2022-08-24T04:48:30;11;7.8;5.6
74428;PMS5003;62860;52.134;23.714;2022-08-24T04:53:38;10.2;8.4;6.6
74428;PMS5003;62860;52.134;23.714;2022-08-24T04:58:40;12.2;9;6.8
74428;PMS5003;62860;52.134;23.714;2022-08-24T05:03:34;8.8;6.8;5.2
74428;PMS5003;62860;52.134;23.714;2022-08-24T05:08:40;10.4;7;5.4
74428;PMS5003;62860;52.134;23.714;2022-08-24T05:13:06;13.8;8;5.6
74428;PMS5003;62860;52.134;23.714;2022-08-24T05:17:54;11.8;7.2;5.6
74428;PMS5003;62860;52.134;23.714;2022-08-24T05:23:26;8.2;7.4;5
74428;PMS5003;62860;52.134;23.714;2022-08-24T05:28:38;9;6.6;5.2
74428;PMS5003;62860;52.134;23.714;2022-08-24T05:33:10;13;11.4;9.2
74428;PMS5003;62860;52.134;23.714;2022-08-24T05:38:22;12.6;9.2;7.6
74428;PMS5003;62860;52.134;23.714;2022-08-24T05:43:22;9.6;7.6;5.8
74428;PMS5003;62860;52.134;23.714;2022-08-24T05:48:18;12;9.8;6.4
74428;PMS5003;62860;52.134;23.714;2022-08-24T05:53:16;9.4;6;4
74428;PMS5003;62860;52.134;23.714;2022-08-24T05:58:22;12;9.2;5.6
74428;PMS5003;62860;52.134;23.714;2022-08-24T06:02:54;11.3;8;5.3
74428;PMS5003;62860;52.134;23.714;2022-08-24T06:08:18;11.4;7.4;5
74428;PMS5003;62860;52.134;23.714;2022-08-24T06:12:54;10.6;7.2;5.2
74428;PMS5003;62860;52.134;23.714;2022-08-24T06:18:26;8.8;6.6;4.2
74428;PMS5003;62860;52.134;23.714;2022-08-24T06:23:24;10.2;8;5.6
74428;PMS5003;62860;52.134;23.714;2022-08-24T06:27:54;10.2;7.4;4.6
74428;PMS5003;62860;52.134;23.714;2022-08-24T06:33:06;10.4;7;4.4
74428;PMS5003;62860;52.134;23.714;2022-08-24T06:38:26;10.6;8;5.8
74428;PMS5003;62860;52.134;23.714;2022-08-24T06:43:38;11;7.2;4.6
74428;PMS5003;62860;52.134;23.714;2022-08-24T06:48:08;10.4;7.4;4.8
74428;PMS5003;62860;52.134;23.714;2022-08-24T06:53:08;12;7.4;4.8
74428;PMS5003;62860;52.134;23.714;2022-08-24T06:58:06;13;8.4;5.2
74428;PMS5003;62860;52.134;23.714;2022-08-24T07:03:24;12.2;7.8;4.6
74428;PMS5003;62860;52.134;23.714;2022-08-24T07:08:06;11.2;6.8;5
74428;PMS5003;62860;52.134;23.714;2022-08-24T07:13:14;10.8;8.4;5.8
74428;PMS5003;62860;52.134;23.714;2022-08-24T07:18:32;11.4;6.6;4
74428;PMS5003;62860;52.134;23.714;2022-08-24T07:23:42;10.8;8.6;5.2
74428;PMS5003;62860;52.134;23.714;2022-08-24T07:28:28;11.6;8.2;5.6
74428;PMS5003;62860;52.134;23.714;2022-08-24T07:33:40;11.6;7.8;5.2
74428;PMS5003;62860;52.134;23.714;2022-08-24T07:38:42;11.4;7;5
74428;PMS5003;62860;52.134;23.714;2022-08-24T07:43:07;12.2;7.8;5.2
74428;PMS5003;62860;52.134;23.714;2022-08-24T07:48:06;12.2;8.4;5.8
74428;PMS5003;62860;52.134;23.714;2022-08-24T07:53:26;9.4;6.8;5
74428;PMS5003;62860;52.134;23.714;2022-08-24T07:58:42;12.2;7.2;4.2
74428;PMS5003;62860;52.134;23.714;2022-08-24T08:03:24;11.2;7.4;4.2
74428;PMS5003;62860;52.134;23.714;2022-08-24T08:08:39;10;7.6;4.8
74428;PMS5003;62860;52.134;23.714;2022-08-24T08:13:16;9.6;6.8;4.4
74428;PMS5003;62860;52.134;23.714;2022-08-24T08:18:06;11.8;8;4.8
74428;PMS5003;62860;52.134;23.714;2022-08-24T08:23:20;10.4;7.2;4.8
74428;PMS5003;62860;52.134;23.714;2022-08-24T08:28:26;13.8;8.6;5
74428;PMS5003;62860;52.134;23.714;2022-08-24T08:33:04;9.4;6.4;4.6
74428;PMS5003;62860;52.134;23.714;2022-08-24T08:38:22;12.8;7.4;4.4
74428;PMS5003;62860;52.134;23.714;2022-08-24T08:43:09;13.8;10.4;6.4
74428;PMS5003;62860;52.134;23.714;2022-08-24T08:49:53;12.8;7.2;4.4
74428;PMS5003;62860;52.134;23.714;2022-08-24T08:54:12;9.8;6.6;4.4
74428;PMS5003;62860;52.134;23.714;2022-08-24T09:18:36;9.6;6;3.6
74428;PMS5003;62860;52.134;23.714;2022-08-24T09:23:10;11;6.6;3.4
74428;PMS5003;62860;52.134;23.714;2022-08-24T09:28:11;11;6;4
74428;PMS5003;62860;52.134;23.714;2022-08-24T09:33:21;11.6;6.8;3.6
74428;PMS5003;62860;52.134;23.714;2022-08-24T09:44:16;15.6;10.8;6.2
74428;PMS5003;62860;52.134;23.714;2022-08-24T09:48:53;9.8;6;3.4
74428;PMS5003;62860;52.134;23.714;2022-08-24T09:54:50;8.8;6;3.8
74428;PMS5003;62860;52.134;23.714;2022-08-24T09:58:38;13.6;10.6;6.8
74428;PMS5003;62860;52.134;23.714;2022-08-24T10:03:47;14.6;10.6;6.4
74428;PMS5003;62860;52.134;23.714;2022-08-24T10:13:09;9.6;7;4.4
74428;PMS5003;62860;52.134;23.714;2022-08-24T10:28:47;7.6;4.2;3
74428;PMS5003;62860;52.134;23.714;2022-08-24T10:33:30;5.6;4.6;2.8
74428;PMS5003;62860;52.134;23.714;2022-08-24T10:39:17;8.4;5;3.4
74428;PMS5003;62860;52.134;23.714;2022-08-24T10:43:25;7.4;5.6;3
74428;PMS5003;62860;52.134;23.714;2022-08-24T10:53:25;8.4;5.4;3.8
74428;PMS5003;62860;52.134;23.714;2022-08-24T10:58:36;7.8;5.2;3.4
74428;PMS5003;62860;52.134;23.714;2022-08-24T11:03:25;6.6;4.6;3.6
74428;PMS5003;62860;52.134;23.714;2022-08-24T11:07:56;6.2;3.8;2.6
74428;PMS5003;62860;52.134;23.714;2022-08-24T11:13:23;7.5;3.8;3.3
74428;PMS5003;62860;52.134;23.714;2022-08-24T11:18:48;7.6;4.6;2.8
74428;PMS5003;62860;52.134;23.714;2022-08-24T11:23:34;7;5.4;3.6
74428;PMS5003;62860;52.134;23.714;2022-08-24T11:28:59;4.8;4;2.8
74428;PMS5003;62860;52.134;23.714;2022-08-24T11:33:27;5.4;4.4;3
74428;PMS5003;62860;52.134;23.714;2022-08-24T11:38:38;5.6;4;3
74428;PMS5003;62860;52.134;23.714;2022-08-24T11:43:57;6.8;5.2;3.6
74428;PMS5003;62860;52.134;23.714;2022-08-24T11:48:24;6.6;4.4;3
74428;PMS5003;62860;52.134;23.714;2022-08-24T11:58:05;5.6;4.2;3
74428;PMS5003;62860;52.134;23.714;2022-08-24T12:03:07;5.4;4.2;2.8
74428;PMS5003;62860;52.134;23.714;2022-08-24T12:08:17;7.2;5;3.2
74428;PMS5003;62860;52.134;23.714;2022-08-24T12:13:22;9.2;4.8;3.4
74428;PMS5003;62860;52.134;23.714;2022-08-24T12:17:55;7.6;4.2;2.2
74428;PMS5003;62860;52.134;23.714;2022-08-24T12:23:33;5;3.2;2.4
74428;PMS5003;62860;52.134;23.714;2022-08-24T12:28:41;5.4;4;2.8
74428;PMS5003;62860;52.134;23.714;2022-08-24T12:32:55;10;4.2;3.2
74428;PMS5003;62860;52.134;23.714;2022-08-24T12:38:42;7.6;4.6;2.8
74428;PMS5003;62860;52.134;23.714;2022-08-24T12:43:43;4.8;3.8;2.4
74428;PMS5003;62860;52.134;23.714;2022-08-24T12:53:10;5.2;3.4;2.6
74428;PMS5003;62860;52.134;23.714;2022-08-24T12:58:59;6.4;4.4;2.6
74428;PMS5003;62860;52.134;23.714;2022-08-24T13:03:39;5.2;3.6;2.4
74428;PMS5003;62860;52.134;23.714;2022-08-24T13:08:35;6.6;4.6;3
74428;PMS5003;62860;52.134;23.714;2022-08-24T13:13:38;6;3.6;2.6
74428;PMS5003;62860;52.134;23.714;2022-08-24T13:18:26;4.8;3.2;2.4
74428;PMS5003;62860;52.134;23.714;2022-08-24T13:23:22;5.2;4.2;3
74428;PMS5003;62860;52.134;23.714;2022-08-24T13:28:30;6.6;3.2;2.2
74428;PMS5003;62860;52.134;23.714;2022-08-24T13:33:24;4.4;3;2
74428;PMS5003;62860;52.134;23.714;2022-08-24T13:38:31;5.2;4;3.4
74428;PMS5003;62860;52.134;23.714;2022-08-24T13:43:18;4;3;2.4
74428;PMS5003;62860;52.134;23.714;2022-08-24T13:48:15;4.6;2.4;2
74428;PMS5003;62860;52.134;23.714;2022-08-24T13:53:41;3.8;3;2
74428;PMS5003;62860;52.134;23.714;2022-08-24T14:03:29;5.2;3.6;2.8
74428;PMS5003;62860;52.134;23.714;2022-08-24T14:08:46;4.2;3.2;2.6
74428;PMS5003;62860;52.134;23.714;2022-08-24T14:13:47;3.8;2.8;2.2
74428;PMS5003;62860;52.134;23.714;2022-08-24T14:18:44;5;2.8;2.4
74428;PMS5003;62860;52.134;23.714;2022-08-24T14:33:35;4.2;3.8;2.8
74428;PMS5003;62860;52.134;23.714;2022-08-24T14:38:42;3.8;3.4;2.6
74428;PMS5003;62860;52.134;23.714;2022-08-24T14:48:30;6;4;3.4
74428;PMS5003;62860;52.134;23.714;2022-08-24T14:54:40;16.8;14.2;10.4
74428;PMS5003;62860;52.134;23.714;2022-08-24T14:58:45;36;29.4;19.8
74428;PMS5003;62860;52.134;23.714;2022-08-24T15:03:25;25;20.4;15.2
74428;PMS5003;62860;52.134;23.714;2022-08-24T15:08:38;5.6;3.6;3.2
74428;PMS5003;62860;52.134;23.714;2022-08-24T15:13:43;5.6;4.4;3
74428;PMS5003;62860;52.134;23.714;2022-08-24T15:17:59;4.6;3.2;2.8
74428;PMS5003;62860;52.134;23.714;2022-08-24T15:23:03;4.8;3.2;2.6
74428;PMS5003;62860;52.134;23.714;2022-08-24T15:28:25;3.4;2.8;2.4
74428;PMS5003;62860;52.134;23.714;2022-08-24T15:33:55;5.6;4.2;3.6
74428;PMS5003;62860;52.134;23.714;2022-08-24T15:38:34;8.4;7.4;5.8
74428;PMS5003;62860;52.134;23.714;2022-08-24T15:43:24;10;8;5.8
74428;PMS5003;62860;52.134;23.714;2022-08-24T15:48:24;35.6;30.2;19.4
74428;PMS5003;62860;52.134;23.714;2022-08-24T15:53:08;6.2;5.6;4.6
74428;PMS5003;62860;52.134;23.714;2022-08-24T15:58:11;6.8;6;4.8
74428;PMS5003;62860;52.134;23.714;2022-08-24T16:03:24;6.6;4.8;3.6
74428;PMS5003;62860;52.134;23.714;2022-08-24T16:08:18;5;3.6;3
74428;PMS5003;62860;52.134;23.714;2022-08-24T16:18:12;7;5.2;3.8
74428;PMS5003;62860;52.134;23.714;2022-08-24T16:23:28;6;4.3;4
74428;PMS5003;62860;52.134;23.714;2022-08-24T16:28:38;6.6;5.2;4.2
74428;PMS5003;62860;52.134;23.714;2022-08-24T16:33:06;12.8;10.6;8
74428;PMS5003;62860;52.134;23.714;2022-08-24T16:38:18;32;28;18.8
74428;PMS5003;62860;52.134;23.714;2022-08-24T16:43:40;29.6;24.6;16.6
74428;PMS5003;62860;52.134;23.714;2022-08-24T16:48:38;19.8;17.4;11.8
74428;PMS5003;62860;52.134;23.714;2022-08-24T16:53:20;12.4;9.6;7.6
74428;PMS5003;62860;52.134;23.714;2022-08-24T16:58:25;8;7;5.6
74428;PMS5003;62860;52.134;23.714;2022-08-24T17:02:54;8.6;6.2;4.8
74428;PMS5003;62860;52.134;23.714;2022-08-24T17:07:54;8.6;6.6;4.6
74428;PMS5003;62860;52.134;23.714;2022-08-24T17:13:14;7.6;6.2;4.8
74428;PMS5003;62860;52.134;23.714;2022-08-24T17:18:26;7.8;6.6;5.8
74428;PMS5003;62860;52.134;23.714;2022-08-24T17:23:30;11.4;8.8;6
74428;PMS5003;62860;52.134;23.714;2022-08-24T17:28:38;9.4;7.4;6.2
74428;PMS5003;62860;52.134;23.714;2022-08-24T17:33:04;10.6;8.8;6.4
74428;PMS5003;62860;52.134;23.714;2022-08-24T17:38:42;13.2;9.6;7.4
74428;PMS5003;62860;52.134;23.714;2022-08-24T17:43:32;11.8;9.6;7.2
74428;PMS5003;62860;52.134;23.714;2022-08-24T17:47:54;10.6;9.6;7
74428;PMS5003;62860;52.134;23.714;2022-08-24T17:53:08;12.8;11;8
74428;PMS5003;62860;52.134;23.714;2022-08-24T17:58:13;23;17.8;12
74428;PMS5003;62860;52.134;23.714;2022-08-24T18:03:38;24.4;21.8;14.8
74428;PMS5003;62860;52.134;23.714;2022-08-24T18:08:24;22.2;19.2;13.4
74428;PMS5003;62860;52.134;23.714;2022-08-24T18:13:38;23.8;21;15
74428;PMS5003;62860;52.134;23.714;2022-08-24T18:18:24;27.2;22.2;16
74428;PMS5003;62860;52.134;23.714;2022-08-24T18:23:30;29.6;25;17.6
74428;PMS5003;62860;52.134;23.714;2022-08-24T18:28:20;30.2;25.2;17.6
74428;PMS5003;62860;52.134;23.714;2022-08-24T18:33:24;28.8;25;16
74428;PMS5003;62860;52.134;23.714;2022-08-24T18:37:54;33.8;27.6;18.2
74428;PMS5003;62860;52.134;23.714;2022-08-24T18:42:55;33.6;27;17.8
74428;PMS5003;62860;52.134;23.714;2022-08-24T18:47:54;33.2;26.8;18.2
74428;PMS5003;62860;52.134;23.714;2022-08-24T18:53:40;33.4;27.6;19.4
74428;PMS5003;62860;52.134;23.714;2022-08-24T18:58:40;30.2;25.4;18.4
74428;PMS5003;62860;52.134;23.714;2022-08-24T19:02:54;24.6;21;16.2
74428;PMS5003;62860;52.134;23.714;2022-08-24T19:08:04;21.8;18.4;14.4
74428;PMS5003;62860;52.134;23.714;2022-08-24T19:13:38;20.6;18.2;13.2
74428;PMS5003;62860;52.134;23.714;2022-08-24T19:18:08;20.2;18;12.8
74428;PMS5003;62860;52.134;23.714;2022-08-24T19:23:23;20.2;17.8;14
74428;PMS5003;62860;52.134;23.714;2022-08-24T19:28:00;22.2;18.6;14.6
74428;PMS5003;62860;52.134;23.714;2022-08-24T19:33:04;23.2;20.2;15.6
74428;PMS5003;62860;52.134;23.714;2022-08-24T19:37:54;24;19;13.6
74428;PMS5003;62860;52.134;23.714;2022-08-24T19:43:00;22;17.2;11.8
74428;PMS5003;62860;52.134;23.714;2022-08-24T19:48:00;22.2;18.8;14
74428;PMS5003;62860;52.134;23.714;2022-08-24T19:53:33;20;18.2;14.8
74428;PMS5003;62860;52.134;23.714;2022-08-24T19:58:50;21.2;18.2;14.2
74428;PMS5003;62860;52.134;23.714;2022-08-24T20:02:55;19.4;17.6;12
74428;PMS5003;62860;52.134;23.714;2022-08-24T20:08:40;21.2;18.8;12.2
74428;PMS5003;62860;52.134;23.714;2022-08-24T20:13:28;21.2;16;11.4
74428;PMS5003;62860;52.134;23.714;2022-08-24T20:18:06;18.2;15;11
74428;PMS5003;62860;52.134;23.714;2022-08-24T20:22:54;17.4;15;10.6
74428;PMS5003;62860;52.134;23.714;2022-08-24T20:28:06;17.4;14.4;11
74428;PMS5003;62860;52.134;23.714;2022-08-24T20:33:36;16.4;13.6;10.4
74428;PMS5003;62860;52.134;23.714;2022-08-24T20:38:38;17.6;14.8;11
74428;PMS5003;62860;52.134;23.714;2022-08-24T20:43:40;17.6;15;11
74428;PMS5003;62860;52.134;23.714;2022-08-24T20:48:27;19.4;15.8;11.6
74428;PMS5003;62860;52.134;23.714;2022-08-24T20:53:24;17;15.4;11.6
74428;PMS5003;62860;52.134;23.714;2022-08-24T20:58:06;19.6;15.4;11.6
74428;PMS5003;62860;52.134;23.714;2022-08-24T21:03:18;18.6;16.8;12.8
74428;PMS5003;62860;52.134;23.714;2022-08-24T21:08:12;20.4;16.8;12.4
74428;PMS5003;62860;52.134;23.714;2022-08-24T21:13:18;20.2;17.6;13.2
74428;PMS5003;62860;52.134;23.714;2022-08-24T21:17:54;37.6;29.6;20.2
74428;PMS5003;62860;52.134;23.714;2022-08-24T21:23:14;40;31.8;20.8
74428;PMS5003;62860;52.134;23.714;2022-08-24T21:28:39;33.2;26.2;19.6
74428;PMS5003;62860;52.134;23.714;2022-08-24T21:33:22;30.2;26.8;18
74428;PMS5003;62860;52.134;23.714;2022-08-24T21:38:38;31.8;27.6;19.6
74428;PMS5003;62860;52.134;23.714;2022-08-24T21:43:18;32.6;29;19.6
74428;PMS5003;62860;52.134;23.714;2022-08-24T21:48:40;30.8;27.6;19
74428;PMS5003;62860;52.134;23.714;2022-08-24T21:53:38;29.2;25.4;17.4
74428;PMS5003;62860;52.134;23.714;2022-08-24T21:58:00;26;22.6;15.8
74428;PMS5003;62860;52.134;23.714;2022-08-24T22:03:22;22.2;19.4;14
74428;PMS5003;62860;52.134;23.714;2022-08-24T22:07:54;20.4;17.6;13
74428;PMS5003;62860;52.134;23.714;2022-08-24T22:13:22;21.4;18;13
74428;PMS5003;62860;52.134;23.714;2022-08-24T22:18:14;18.2;17.2;13.6
74428;PMS5003;62860;52.134;23.714;2022-08-24T22:23:12;21.6;17.8;13.2
74428;PMS5003;62860;52.134;23.714;2022-08-24T22:28:31;20.6;17.8;13.4
74428;PMS5003;62860;52.134;23.714;2022-08-24T22:33:33;18.4;16.8;12.6
74428;PMS5003;62860;52.134;23.714;2022-08-24T22:38:20;19.2;16.4;12
74428;PMS5003;62860;52.134;23.714;2022-08-24T22:43:34;17.6;14.6;11.2
74428;PMS5003;62860;52.134;23.714;2022-08-24T22:48:10;18.8;16;12.4
74428;PMS5003;62860;52.134;23.714;2022-08-24T22:52:54;17.5;15.8;10.8
74428;PMS5003;62860;52.134;23.714;2022-08-24T22:57:58;17.2;16;12
74428;PMS5003;62860;52.134;23.714;2022-08-24T23:03:22;19.8;17.2;12.2
74428;PMS5003;62860;52.134;23.714;2022-08-24T23:08:34;22.4;20.8;15.6
74428;PMS5003;62860;52.134;23.714;2022-08-24T23:13:20;24.2;20.2;14.4
74428;PMS5003;62860;52.134;23.714;2022-08-24T23:18:16;24.4;21;14.6
74428;PMS5003;62860;52.134;23.714;2022-08-24T23:23:08;22.8;20.2;13.8
74428;PMS5003;62860;52.134;23.714;2022-08-24T23:28:18;22.2;17.4;12
74428;PMS5003;62860;52.134;23.714;2022-08-24T23:32:54;23.2;19.4;14
74428;PMS5003;62860;52.134;23.714;2022-08-24T23:38:20;19.8;17;12.8
74428;PMS5003;62860;52.134;23.714;2022-08-24T23:42:54;22.4;20.2;14.2
74428;PMS5003;62860;52.134;23.714;2022-08-24T23:48:04;23;20.4;14
74428;PMS5003;62860;52.134;23.714;2022-08-24T23:53:10;19;18;13
74428;PMS5003;62860;52.134;23.714;2022-08-24T23:58:34;20.2;16.8;12.6
